createdAt,value
2023-07-11T00:02:50.124Z,20.80
2023-07-11T00:12:54.080Z,20.30
2023-07-11T00:22:59.136Z,20.30
2023-07-11T00:33:02.868Z,20.40
2023-07-11T00:43:12.592Z,20.30
2023-07-11T00:53:17.527Z,19.90
2023-07-11T01:03:25.167Z,19.90
2023-07-11T01:13:29.113Z,19.70
2023-07-11T01:23:35.433Z,19.90
2023-07-11T01:33:39.294Z,20.00
2023-07-11T01:43:44.625Z,19.80
2023-07-11T01:53:48.642Z,19.60
2023-07-11T02:03:53.949Z,19.80
2023-07-11T02:13:57.703Z,19.70
2023-07-11T02:24:02.770Z,19.40
2023-07-11T02:34:07.104Z,19.30
2023-07-11T02:44:12.574Z,19.10
2023-07-11T02:54:16.618Z,18.90
2023-07-11T03:04:21.627Z,18.70
2023-07-11T03:14:25.406Z,18.90
2023-07-11T03:24:30.405Z,18.90
2023-07-11T03:34:38.033Z,18.70
2023-07-11T03:44:46.570Z,18.40
2023-07-11T03:54:53.668Z,18.60
2023-07-11T04:04:58.640Z,18.40
2023-07-11T04:15:03.012Z,18.40
2023-07-11T04:25:08.894Z,18.10
2023-07-11T04:35:15.802Z,18.50
2023-07-11T04:45:20.885Z,18.80
2023-07-11T04:55:24.556Z,18.90
2023-07-11T05:05:29.899Z,19.20
2023-07-11T05:15:33.682Z,19.60
2023-07-11T05:25:39.643Z,19.90
2023-07-11T05:35:58.927Z,20.10
2023-07-11T05:46:04.395Z,20.70
2023-07-11T05:56:09.076Z,21.00
2023-07-11T06:06:16.177Z,21.20
2023-07-11T06:16:22.384Z,21.60
2023-07-11T06:26:27.690Z,21.90
2023-07-11T06:36:31.427Z,22.30
2023-07-11T06:46:36.486Z,22.80
2023-07-11T06:56:40.158Z,23.00
2023-07-11T07:06:45.905Z,23.30
2023-07-11T07:16:49.730Z,23.80
2023-07-11T07:26:55.110Z,24.10
2023-07-11T07:36:59.555Z,24.30
2023-07-11T07:47:04.875Z,24.60
2023-07-11T07:57:08.730Z,25.00
2023-07-11T08:07:14.582Z,25.40
2023-07-11T08:17:18.278Z,25.70
2023-07-11T08:27:23.555Z,26.10
2023-07-11T08:37:27.357Z,26.40
2023-07-11T08:47:38.824Z,26.50
2023-07-11T08:57:47.114Z,26.90
2023-07-11T09:07:54.093Z,27.10
2023-07-11T09:18:09.646Z,27.50
2023-07-11T09:28:20.751Z,27.60
2023-07-11T09:38:31.881Z,28.00
2023-07-11T09:48:37.758Z,28.50
2023-07-11T09:58:42.669Z,28.80
2023-07-11T10:08:50.715Z,28.60
2023-07-11T10:18:54.950Z,29.10
2023-07-11T10:29:08.833Z,29.50
2023-07-11T10:39:26.796Z,29.50
2023-07-11T10:49:39.522Z,29.60
2023-07-11T10:59:43.349Z,29.80
2023-07-11T11:09:57.447Z,30.10
2023-07-11T11:20:14.431Z,30.70
2023-07-11T11:30:34.497Z,31.10
2023-07-11T11:40:41.996Z,31.20
2023-07-11T12:00:57.719Z,31.50
2023-07-11T12:11:32.742Z,31.80
2023-07-11T12:21:44.224Z,31.90
2023-07-11T12:32:30.428Z,32.20
2023-07-11T12:42:52.698Z,32.10
2023-07-11T12:53:04.677Z,32.30
2023-07-11T13:03:25.071Z,32.40
2023-07-11T13:13:32.869Z,32.80
2023-07-11T13:23:39.874Z,32.70
2023-07-11T13:33:44.881Z,32.70
2023-07-11T13:43:49.175Z,32.70
2023-07-11T13:53:58.858Z,32.50
2023-07-11T14:04:03.609Z,32.70
2023-07-11T14:14:24.937Z,32.90
2023-07-11T14:24:38.761Z,33.00
2023-07-11T14:34:44.096Z,33.30
2023-07-11T14:44:48.408Z,33.50
2023-07-11T15:25:32.432Z,34.10
2023-07-11T15:35:37.438Z,34.70
2023-07-11T15:45:41.100Z,34.30
2023-07-11T15:55:46.865Z,34.70
2023-07-11T16:05:52.915Z,35.00
2023-07-11T16:16:00.421Z,35.10
2023-07-11T16:26:04.505Z,34.20
2023-07-11T16:36:16.408Z,33.90
2023-07-11T16:46:21.079Z,33.80
2023-07-11T16:56:26.273Z,33.60
2023-07-11T17:06:33.321Z,33.10
2023-07-11T17:16:42.190Z,32.70
2023-07-11T17:26:45.971Z,32.30
2023-07-11T17:36:51.709Z,31.90
2023-07-11T17:47:30.479Z,31.60
2023-07-11T17:57:23.885Z,31.40
2023-07-11T18:07:34.266Z,31.10
2023-07-11T18:17:40.048Z,31.00
2023-07-11T18:27:44.057Z,30.50
2023-07-11T18:37:49.960Z,30.10
2023-07-11T18:47:56.011Z,29.70
2023-07-11T18:58:03.277Z,29.40
2023-07-11T19:08:17.166Z,29.40
2023-07-11T19:18:26.277Z,29.20
2023-07-11T19:28:33.053Z,28.90
2023-07-11T19:38:38.053Z,28.40
2023-07-11T19:48:42.318Z,27.90
2023-07-11T19:58:47.544Z,27.20
2023-07-11T20:08:51.968Z,26.90
2023-07-11T20:18:57.217Z,26.70
2023-07-11T20:29:00.997Z,26.70
2023-07-11T20:39:10.843Z,26.90
2023-07-11T20:49:14.802Z,26.90
2023-07-11T20:59:20.388Z,26.80
2023-07-11T21:09:25.925Z,26.90
2023-07-11T21:19:31.151Z,27.30
2023-07-11T21:29:34.916Z,27.10
2023-07-11T21:39:40.755Z,27.10
2023-07-11T21:49:44.430Z,27.10
2023-07-11T21:59:55.227Z,27.10
2023-07-11T22:09:58.922Z,26.90
2023-07-11T22:20:04.571Z,26.00
2023-07-11T22:30:24.660Z,25.30
2023-07-11T22:40:34.743Z,24.50
2023-07-11T22:50:48.402Z,23.90
2023-07-11T23:00:55.317Z,23.80
2023-07-11T23:11:00.207Z,23.70
2023-07-11T23:21:05.495Z,23.70
2023-07-11T23:31:11.311Z,23.50
2023-07-11T23:41:16.973Z,23.10
2023-07-11T23:51:22.640Z,22.90
